createdAt,value
2019-05-18T00:01:51.442Z,73.06
2019-05-18T00:04:20.819Z,73.26
2019-05-18T00:06:47.605Z,73.09
2019-05-18T00:09:14.419Z,72.73
2019-05-18T00:11:41.375Z,73.05
2019-05-18T00:14:08.164Z,72.74
2019-05-18T00:16:36.400Z,72.96
2019-05-18T00:19:03.549Z,73.25
2019-05-18T00:21:30.459Z,73.67
2019-05-18T00:23:57.298Z,74.72
2019-05-18T00:26:24.555Z,74.56
2019-05-18T00:28:51.451Z,74.12
2019-05-18T00:31:18.268Z,73.76
2019-05-18T00:33:45.523Z,73.77
2019-05-18T00:36:12.410Z,73.68
2019-05-18T00:38:40.319Z,73.68
2019-05-18T00:41:07.285Z,73.91
2019-05-18T00:43:34.173Z,74.35
2019-05-18T00:46:03.431Z,74.19
2019-05-18T00:48:30.163Z,73.76
2019-05-18T00:50:56.849Z,74.10
2019-05-18T00:53:23.750Z,74.42
2019-05-18T00:55:50.489Z,74.53
2019-05-18T00:58:17.737Z,74.35
2019-05-18T01:00:44.781Z,74.56
2019-05-18T01:03:11.496Z,74.52
2019-05-18T01:05:38.375Z,74.35
2019-05-18T01:08:05.433Z,74.21
2019-05-18T01:10:34.168Z,73.86
2019-05-18T01:13:00.890Z,73.71
2019-05-18T01:15:31.606Z,73.95
2019-05-18T01:18:02.012Z,74.23
2019-05-18T01:20:27.176Z,74.62
2019-05-18T01:22:53.902Z,74.83
2019-05-18T01:25:20.657Z,74.91
2019-05-18T01:27:47.538Z,74.58
2019-05-18T01:30:16.773Z,74.54
2019-05-18T01:32:43.520Z,74.61
2019-05-18T01:35:10.677Z,74.80
2019-05-18T01:37:37.710Z,74.94
2019-05-18T01:40:07.361Z,74.57
2019-05-18T01:42:35.706Z,74.92
2019-05-18T01:45:15.856Z,74.59
2019-05-18T01:47:34.303Z,75.16
2019-05-18T01:50:05.203Z,75.58
2019-05-18T01:52:31.889Z,75.51
2019-05-18T01:54:58.957Z,75.70
2019-05-18T01:57:25.641Z,75.72
2019-05-18T01:59:52.398Z,75.75
2019-05-18T02:02:19.043Z,75.61
2019-05-18T02:04:45.763Z,75.68
2019-05-18T02:07:12.494Z,75.77
2019-05-18T02:09:39.161Z,75.56
2019-05-18T02:12:05.877Z,75.47
2019-05-18T02:14:32.596Z,75.64
2019-05-18T02:16:59.419Z,75.54
2019-05-18T02:19:26.136Z,76.12
2019-05-18T02:21:52.916Z,77.31
2019-05-18T02:24:19.650Z,77.07
2019-05-18T02:26:46.384Z,77.05
2019-05-18T02:29:15.323Z,77.85
2019-05-18T02:31:41.946Z,78.01
2019-05-18T02:34:08.734Z,77.40
2019-05-18T02:36:35.513Z,76.95
2019-05-18T02:39:04.305Z,77.03
2019-05-18T02:41:31.017Z,76.96
2019-05-18T02:43:57.709Z,76.34
2019-05-18T02:46:24.431Z,76.18
2019-05-18T02:48:51.255Z,75.95
2019-05-18T02:51:18.287Z,76.41
2019-05-18T02:53:44.998Z,76.48
2019-05-18T02:56:11.711Z,76.00
2019-05-18T02:58:39.376Z,75.45
2019-05-18T03:01:06.097Z,75.23
2019-05-18T03:03:33.193Z,74.97
2019-05-18T03:05:59.896Z,74.98
2019-05-18T03:08:26.605Z,75.29
2019-05-18T03:10:54.740Z,75.65
2019-05-18T03:13:21.451Z,76.34
2019-05-18T03:15:50.574Z,76.32
2019-05-18T03:18:17.311Z,76.46
2019-05-18T03:20:44.666Z,76.05
2019-05-18T03:23:11.445Z,75.83
2019-05-18T03:25:41.172Z,75.65
2019-05-18T03:28:07.910Z,75.49
2019-05-18T03:30:34.651Z,75.15
2019-05-18T03:33:01.403Z,75.28
2019-05-18T03:35:28.139Z,75.39
2019-05-18T03:37:54.841Z,75.25
2019-05-18T03:40:21.581Z,75.36
2019-05-18T03:42:48.344Z,75.30
2019-05-18T03:45:15.189Z,75.22
2019-05-18T03:47:42.063Z,74.79
2019-05-18T03:50:08.792Z,74.63
2019-05-18T03:52:38.009Z,74.69
2019-05-18T03:55:04.814Z,75.04
2019-05-18T03:57:31.533Z,75.29
2019-05-18T03:59:58.221Z,75.29
2019-05-18T04:02:25.350Z,75.35
2019-05-18T04:04:52.141Z,75.73
2019-05-18T04:07:18.911Z,76.36
2019-05-18T04:09:46.021Z,76.43
2019-05-18T04:12:12.824Z,76.58
2019-05-18T04:14:39.536Z,76.42
2019-05-18T04:17:06.521Z,76.26
2019-05-18T04:19:45.482Z,76.20
2019-05-18T04:22:03.784Z,76.18
2019-05-18T04:24:30.523Z,76.10
2019-05-18T04:26:57.255Z,75.84
2019-05-18T04:29:23.981Z,75.77
2019-05-18T04:31:50.681Z,75.64
2019-05-18T04:34:17.469Z,75.89
2019-05-18T04:36:47.786Z,75.86
2019-05-18T04:39:14.792Z,75.98
2019-05-18T04:41:41.610Z,75.85
2019-05-18T04:44:08.460Z,75.50
2019-05-18T04:46:35.685Z,75.02
2019-05-18T04:49:02.365Z,74.83
2019-05-18T04:51:29.474Z,75.36
2019-05-18T04:53:56.145Z,75.62
2019-05-18T04:56:22.904Z,76.13
2019-05-18T04:58:49.678Z,75.69
2019-05-18T05:01:19.415Z,75.19
2019-05-18T05:03:46.110Z,74.66
2019-05-18T05:06:12.849Z,74.16
2019-05-18T05:08:39.574Z,73.94
2019-05-18T05:11:06.396Z,74.08
2019-05-18T05:13:33.386Z,73.94
2019-05-18T05:16:00.119Z,73.78
2019-05-18T05:18:27.209Z,73.90
2019-05-18T05:20:53.924Z,74.01
2019-05-18T05:23:20.665Z,73.75
2019-05-18T05:25:47.681Z,73.66
2019-05-18T05:28:14.384Z,73.16
2019-05-18T05:30:41.412Z,73.00
2019-05-18T05:33:08.156Z,73.01
2019-05-18T05:35:37.614Z,73.23
2019-05-18T05:38:03.622Z,73.83
2019-05-18T05:40:30.336Z,73.54
2019-05-18T05:42:57.062Z,73.11
2019-05-18T05:45:23.802Z,72.68
2019-05-18T05:47:50.630Z,72.01
2019-05-18T05:50:17.363Z,71.78
2019-05-18T05:52:46.488Z,70.97
2019-05-18T05:55:13.266Z,71.27
2019-05-18T05:57:39.989Z,71.29
2019-05-18T06:00:06.901Z,71.34
2019-05-18T06:02:33.904Z,71.49
2019-05-18T06:05:00.883Z,71.95
2019-05-18T06:07:27.587Z,71.59
2019-05-18T06:09:56.715Z,71.99
2019-05-18T06:12:23.408Z,72.03
2019-05-18T06:14:56.206Z,71.99
2019-05-18T06:17:23.036Z,72.10
2019-05-18T06:19:55.162Z,72.12
2019-05-18T06:22:23.137Z,72.42
2019-05-18T06:24:50.035Z,72.42
2019-05-18T06:27:17.802Z,71.78
2019-05-18T06:29:49.802Z,71.77
2019-05-18T06:32:19.466Z,72.40
2019-05-18T06:34:46.600Z,72.27
2019-05-18T06:37:13.356Z,71.88
2019-05-18T06:39:40.109Z,70.94
2019-05-18T06:42:07.281Z,70.55
2019-05-18T06:44:37.614Z,69.96
2019-05-18T06:47:07.597Z,70.13
2019-05-18T06:49:37.284Z,69.99
2019-05-18T06:52:06.382Z,69.96
2019-05-18T06:54:33.114Z,69.50
2019-05-18T06:56:59.870Z,69.04
2019-05-18T06:59:26.686Z,69.76
2019-05-18T07:01:56.466Z,69.79
2019-05-18T07:04:25.199Z,69.58
2019-05-18T07:06:51.904Z,70.03
2019-05-18T07:09:18.993Z,70.50
2019-05-18T07:11:45.733Z,70.45
2019-05-18T07:14:24.962Z,70.62
2019-05-18T07:16:41.609Z,70.66
2019-05-18T07:19:08.351Z,70.44
2019-05-18T07:21:35.341Z,70.57
2019-05-18T07:24:02.401Z,70.04
2019-05-18T07:26:29.182Z,69.77
2019-05-18T07:28:56.126Z,69.12
2019-05-18T07:31:22.981Z,68.62
2019-05-18T07:33:49.846Z,67.48
2019-05-18T07:36:16.602Z,67.56
2019-05-18T07:38:43.532Z,67.60
2019-05-18T07:41:13.337Z,67.03
2019-05-18T07:43:40.054Z,66.50
2019-05-18T07:46:08.757Z,66.95
2019-05-18T07:48:35.438Z,67.12
2019-05-18T07:51:02.541Z,66.87
2019-05-18T07:53:31.866Z,66.67
2019-05-18T07:55:58.587Z,66.86
2019-05-18T07:58:25.675Z,66.53
2019-05-18T08:00:52.497Z,67.04
2019-05-18T08:03:19.252Z,67.70
2019-05-18T08:05:46.971Z,67.14
2019-05-18T08:08:13.701Z,68.40
2019-05-18T08:10:43.857Z,68.28
2019-05-18T08:13:11.051Z,68.09
2019-05-18T08:15:38.132Z,67.80
2019-05-18T08:18:04.935Z,67.78
2019-05-18T08:20:32.057Z,67.89
2019-05-18T08:22:58.748Z,67.81
2019-05-18T08:25:25.494Z,67.48
2019-05-18T08:27:52.336Z,67.25
2019-05-18T08:30:19.391Z,67.10
2019-05-18T08:32:46.740Z,66.76
2019-05-18T08:35:13.654Z,66.36
2019-05-18T08:37:40.472Z,65.57
2019-05-18T08:40:07.301Z,65.40
2019-05-18T08:42:34.052Z,65.36
2019-05-18T08:45:00.793Z,64.56
2019-05-18T08:47:27.804Z,64.52
2019-05-18T08:49:55.250Z,63.67
2019-05-18T08:52:22.294Z,64.22
2019-05-18T08:54:49.616Z,63.95
2019-05-18T08:57:16.801Z,62.82
2019-05-18T08:59:43.854Z,63.49
2019-05-18T09:02:10.570Z,63.18
2019-05-18T09:04:37.502Z,63.15
2019-05-18T09:07:04.400Z,64.22
2019-05-18T09:09:31.531Z,64.43
2019-05-18T09:11:58.309Z,63.26
2019-05-18T09:14:25.437Z,63.16
2019-05-18T09:16:52.156Z,63.40
2019-05-18T09:19:19.046Z,63.23
2019-05-18T09:21:45.816Z,63.34
2019-05-18T09:24:12.611Z,62.95
2019-05-18T09:26:39.626Z,63.07
2019-05-18T09:29:06.368Z,62.13
2019-05-18T09:31:33.058Z,60.64
2019-05-18T09:33:59.808Z,60.89
2019-05-18T09:36:26.972Z,61.13
2019-05-18T09:38:54.510Z,61.28
2019-05-18T09:41:22.009Z,60.75
2019-05-18T09:43:49.071Z,59.77
2019-05-18T09:46:15.804Z,59.61
2019-05-18T09:48:42.544Z,59.73
2019-05-18T09:51:09.593Z,59.66
2019-05-18T09:53:36.676Z,59.19
2019-05-18T09:56:03.912Z,59.16
2019-05-18T09:58:30.645Z,59.20
2019-05-18T10:00:57.402Z,59.39
2019-05-18T10:03:24.177Z,59.01
2019-05-18T10:05:51.133Z,58.97
2019-05-18T10:08:19.777Z,58.56
2019-05-18T10:10:46.495Z,57.74
2019-05-18T10:13:13.214Z,57.01
2019-05-18T10:15:39.908Z,56.73
2019-05-18T10:18:06.707Z,56.15
2019-05-18T10:20:33.749Z,55.60
2019-05-18T10:23:12.523Z,56.26
2019-05-18T10:25:29.093Z,56.58
2019-05-18T10:27:55.835Z,55.92
2019-05-18T10:30:23.199Z,55.08
2019-05-18T10:32:50.444Z,55.21
2019-05-18T10:35:17.274Z,54.86
2019-05-18T10:37:44.394Z,54.48
2019-05-18T10:40:11.220Z,55.99
2019-05-18T10:42:38.408Z,56.26
2019-05-18T10:45:05.653Z,56.52
2019-05-18T10:47:32.773Z,56.98
2019-05-18T10:50:00.077Z,57.28
2019-05-18T10:52:26.776Z,56.90
2019-05-18T10:54:53.847Z,56.76
2019-05-18T10:57:20.591Z,56.13
2019-05-18T10:59:47.319Z,55.24
2019-05-18T11:02:14.513Z,55.19
2019-05-18T11:04:41.238Z,54.90
2019-05-18T11:07:08.468Z,54.73
2019-05-18T11:09:35.310Z,54.03
2019-05-18T11:12:03.688Z,53.91
2019-05-18T11:14:33.394Z,53.13
2019-05-18T11:17:03.687Z,52.85
2019-05-18T11:19:32.227Z,52.82
2019-05-18T11:22:00.760Z,51.20
2019-05-18T11:24:27.578Z,50.84
2019-05-18T11:26:54.283Z,50.47
2019-05-18T11:29:23.400Z,50.31
2019-05-18T11:31:49.812Z,49.37
2019-05-18T11:34:16.911Z,48.54
2019-05-18T11:36:44.097Z,48.96
2019-05-18T11:39:11.454Z,48.85
2019-05-18T11:41:38.505Z,49.29
2019-05-18T11:44:10.803Z,49.21
2019-05-18T11:46:37.156Z,48.64
2019-05-18T11:49:03.877Z,46.67
2019-05-18T11:51:30.997Z,45.24
2019-05-18T11:54:03.901Z,45.63
2019-05-18T11:56:30.633Z,45.77
2019-05-18T11:58:57.307Z,46.33
2019-05-18T12:01:24.438Z,46.48
2019-05-18T12:03:53.058Z,46.42
2019-05-18T12:06:20.092Z,46.41
2019-05-18T12:08:46.856Z,46.33
2019-05-18T12:11:13.624Z,45.24
2019-05-18T12:13:40.306Z,45.11
2019-05-18T12:16:07.305Z,43.92
2019-05-18T12:18:34.320Z,44.98
2019-05-18T12:21:01.058Z,45.54
2019-05-18T12:23:27.835Z,45.15
2019-05-18T12:25:54.584Z,45.20
2019-05-18T12:28:22.811Z,44.95
2019-05-18T12:30:49.544Z,44.36
2019-05-18T12:33:17.215Z,44.55
2019-05-18T12:35:43.927Z,44.63
2019-05-18T12:38:10.644Z,44.96
2019-05-18T12:40:37.371Z,44.44
2019-05-18T12:43:04.670Z,43.49
2019-05-18T12:45:32.557Z,44.20
2019-05-18T12:47:59.447Z,44.14
2019-05-18T12:50:26.595Z,43.93
2019-05-18T12:52:53.335Z,42.73
2019-05-18T12:55:20.043Z,42.15
2019-05-18T12:57:46.885Z,42.32
2019-05-18T13:00:13.641Z,41.74
2019-05-18T13:02:40.385Z,41.92
2019-05-18T13:05:08.296Z,42.15
2019-05-18T13:07:35.057Z,41.52
2019-05-18T13:10:01.908Z,41.61
2019-05-18T13:12:28.639Z,42.17
2019-05-18T13:14:59.897Z,41.93
2019-05-18T13:17:26.633Z,41.77
2019-05-18T13:19:53.774Z,41.77
2019-05-18T13:22:20.623Z,41.62
2019-05-18T13:24:47.338Z,40.41
2019-05-18T13:27:14.092Z,39.73
2019-05-18T13:29:40.885Z,39.55
2019-05-18T13:32:07.921Z,39.53
2019-05-18T13:34:34.953Z,39.92
2019-05-18T13:37:01.699Z,41.51
2019-05-18T13:39:28.517Z,41.95
2019-05-18T13:41:55.269Z,41.57
2019-05-18T13:44:22.109Z,40.75
2019-05-18T13:46:51.804Z,40.67
2019-05-18T13:49:18.881Z,41.00
2019-05-18T13:51:45.685Z,40.97
2019-05-18T13:54:14.563Z,41.05
2019-05-18T13:56:43.405Z,41.66
2019-05-18T13:59:10.126Z,41.64
2019-05-18T14:01:37.635Z,41.92
2019-05-18T14:04:04.348Z,42.02
2019-05-18T14:06:31.748Z,42.23
2019-05-18T14:08:58.503Z,42.32
2019-05-18T14:11:25.588Z,41.60
2019-05-18T14:13:52.301Z,41.02
2019-05-18T14:16:19.054Z,39.58
2019-05-18T14:18:46.943Z,39.12
2019-05-18T14:21:13.856Z,38.98
2019-05-18T14:23:40.599Z,38.90
2019-05-18T14:26:07.510Z,39.22
2019-05-18T14:28:34.245Z,39.71
2019-05-18T14:31:00.993Z,39.41
2019-05-18T14:33:27.723Z,39.26
2019-05-18T14:35:54.431Z,39.30
2019-05-18T14:38:21.429Z,38.46
2019-05-18T14:40:48.229Z,39.05
2019-05-18T14:43:15.435Z,39.02
2019-05-18T14:45:42.384Z,39.49
2019-05-18T14:48:09.106Z,40.13
2019-05-18T14:50:41.113Z,41.42
2019-05-18T14:53:07.840Z,42.38
2019-05-18T14:55:34.551Z,42.73
2019-05-18T14:58:02.973Z,42.85
2019-05-18T15:00:29.721Z,42.90
2019-05-18T15:02:56.998Z,43.06
2019-05-18T15:05:23.838Z,43.25
2019-05-18T15:07:50.843Z,42.87
2019-05-18T15:10:17.564Z,43.13
2019-05-18T15:12:46.194Z,43.58
2019-05-18T15:15:14.465Z,43.96
2019-05-18T15:17:41.187Z,44.01
2019-05-18T15:20:07.887Z,43.47
2019-05-18T15:22:37.384Z,43.39
2019-05-18T15:25:04.924Z,43.38
2019-05-18T15:27:32.331Z,43.56
2019-05-18T15:29:59.051Z,43.38
2019-05-18T15:32:25.809Z,43.97
2019-05-18T15:34:52.547Z,43.85
2019-05-18T15:37:19.328Z,43.16
2019-05-18T15:39:46.072Z,42.98
2019-05-18T15:42:13.223Z,42.94
2019-05-18T15:44:40.024Z,42.96
2019-05-18T15:47:06.970Z,42.76
2019-05-18T15:49:34.259Z,45.27
2019-05-18T15:52:01.143Z,48.15
2019-05-18T15:54:27.885Z,49.34
2019-05-18T15:56:54.630Z,50.35
2019-05-18T15:59:24.266Z,51.39
2019-05-18T16:01:51.035Z,52.49
2019-05-18T16:04:18.652Z,53.01
2019-05-18T16:06:45.801Z,54.09
2019-05-18T16:09:14.784Z,54.43
2019-05-18T16:11:44.648Z,54.79
2019-05-18T16:14:11.628Z,54.98
2019-05-18T16:16:38.361Z,55.57
2019-05-18T16:19:05.539Z,55.94
2019-05-18T16:21:32.275Z,56.28
2019-05-18T16:23:59.015Z,56.06
2019-05-18T16:26:27.952Z,55.64
2019-05-18T16:28:57.042Z,55.67
2019-05-18T16:31:23.738Z,55.92
2019-05-18T16:33:50.446Z,55.92
2019-05-18T16:36:17.187Z,55.17
2019-05-18T16:38:44.752Z,54.15
2019-05-18T16:41:11.484Z,53.79
2019-05-18T16:43:38.210Z,54.08
2019-05-18T16:46:05.360Z,54.40
2019-05-18T16:48:32.250Z,54.19
2019-05-18T16:51:00.765Z,54.74
2019-05-18T16:53:27.562Z,54.59
2019-05-18T16:55:54.319Z,54.45
2019-05-18T16:58:21.048Z,54.51
2019-05-18T17:00:48.562Z,55.48
2019-05-18T17:03:15.308Z,55.77
2019-05-18T17:05:43.727Z,55.92
2019-05-18T17:08:10.494Z,55.76
2019-05-18T17:10:37.570Z,55.93
2019-05-18T17:13:04.268Z,56.15
2019-05-18T17:15:31.056Z,56.68
2019-05-18T17:17:57.959Z,56.92
2019-05-18T17:20:24.694Z,57.39
2019-05-18T17:22:51.777Z,57.74
2019-05-18T17:25:18.532Z,58.08
2019-05-18T17:27:45.364Z,58.48
2019-05-18T17:30:12.302Z,58.33
2019-05-18T17:32:39.120Z,58.40
2019-05-18T17:35:09.040Z,57.93
2019-05-18T17:37:35.806Z,58.06
2019-05-18T17:40:03.058Z,58.42
2019-05-18T17:42:30.300Z,57.97
2019-05-18T17:44:57.016Z,58.53
2019-05-18T17:47:23.753Z,58.41
2019-05-18T17:49:50.595Z,58.26
2019-05-18T17:52:17.341Z,57.66
2019-05-18T17:54:44.162Z,57.15
2019-05-18T17:57:10.928Z,56.73
2019-05-18T17:59:40.054Z,56.91
2019-05-18T18:02:06.894Z,56.45
2019-05-18T18:04:33.612Z,56.88
2019-05-18T18:07:02.193Z,56.31
2019-05-18T18:09:29.028Z,57.09
2019-05-18T18:11:55.804Z,57.48
2019-05-18T18:14:22.614Z,59.15
2019-05-18T18:16:49.548Z,60.27
2019-05-18T18:19:16.319Z,61.43
2019-05-18T18:21:43.048Z,61.37
2019-05-18T18:24:09.819Z,62.14
2019-05-18T18:26:36.576Z,62.02
2019-05-18T18:29:04.317Z,63.04
2019-05-18T18:31:31.269Z,63.33
2019-05-18T18:33:57.995Z,63.44
2019-05-18T18:36:25.056Z,64.27
2019-05-18T18:38:51.825Z,64.72
2019-05-18T18:41:19.464Z,64.62
2019-05-18T18:43:48.248Z,64.04
2019-05-18T18:46:14.902Z,64.25
2019-05-18T18:48:41.618Z,64.07
2019-05-18T18:51:08.550Z,64.41
2019-05-18T18:53:35.300Z,64.90
2019-05-18T18:56:02.048Z,64.96
2019-05-18T18:58:28.760Z,64.89
2019-05-18T19:00:55.488Z,65.03
2019-05-18T19:03:22.210Z,64.66
2019-05-18T19:05:49.267Z,65.05
2019-05-18T19:08:15.992Z,65.21
2019-05-18T19:11:05.148Z,65.46
2019-05-18T23:02:52.717Z,76.70
2019-05-18T23:05:19.512Z,77.60
2019-05-18T23:07:46.260Z,79.00
2019-05-18T23:10:13.034Z,79.49
2019-05-18T23:12:39.808Z,80.33
2019-05-18T23:15:06.554Z,80.78
2019-05-18T23:17:33.357Z,80.43
2019-05-18T23:20:00.508Z,80.00
2019-05-18T23:22:27.257Z,79.69
2019-05-18T23:24:53.988Z,78.57
2019-05-18T23:27:20.771Z,78.39
2019-05-18T23:29:50.220Z,77.79
2019-05-18T23:32:16.997Z,77.11
2019-05-18T23:34:46.292Z,77.49
2019-05-18T23:37:13.251Z,78.21
2019-05-18T23:39:40.035Z,78.13
2019-05-18T23:42:09.250Z,77.66
2019-05-18T23:44:36.605Z,77.92
2019-05-18T23:47:03.667Z,77.90
2019-05-18T23:49:30.423Z,77.21
2019-05-18T23:51:57.199Z,78.13
2019-05-18T23:54:24.494Z,78.40
2019-05-18T23:56:54.616Z,78.49
2019-05-18T23:59:24.621Z,78.86
